Morrisville, Vermont
Current Conditions -  °F | °C
As of 7:27 PM on Friday 24 Oct 2014 (Local Time) from KMVL Reporting Station
Overcast Overcast  
Wind Chill: 46°   Ceiling: 4600
Heat Index: 46°   Visibility: 10mi
Dew Point: 38°   Wind: 3mph
Humidity: 73%   Direction: 10°N
Pressure: 29.85"   Gusts: NA
Location:  44.56°N, 72.6°W
Report Text: KMVL 242327Z AUTO 01003KT 10SM SCT022 OVC046 08/03 A2985 RMK AO2 T00780033
Loading
Personal Weather Stations






























Interactive Weather Map
Tropical Storm Tracking
New forecast layout! Learn more

10-Day Weather Forecast

Advertisements
Track Severe Weather on mobile